ADDS METAR Data INFO
IDs: Format: Raw Decoded Include TAF

Data at: 1348 UTC 23 Jun 2018

KTPF 231335Z AUTO 28006KT 10SM SCT025 OVC110 30/24 A3003 RMK AO2
KTPF 231315Z AUTO 27006KT 10SM SCT025 OVC095 30/24 A3003 RMK AO2
KTPF 231255Z AUTO 29003KT 10SM SCT025 BKN100 OVC110 29/23 A3003 RMK AO2
KTPF 231235Z AUTO 00000KT 10SM SCT025 SCT041 OVC100 29/24 A3003 RMK AO2
KTPF 231215Z AUTO 00000KT 10SM BKN100 OVC120 28/24 A3002 RMK AO2
KTPF 231155Z AUTO 26003KT 10SM SCT090 OVC110 28/24 A3002 RMK AO2
KTPF 231135Z AUTO 00000KT 10SM OVC100 27/24 A3001 RMK AO2
KTPF 231115Z AUTO 00000KT 10SM BKN100 OVC120 27/24 A3000 RMK AO2
KTPF 231055Z AUTO 00000KT 10SM OVC100 27/24 A3000 RMK AO2
KTPF 231035Z AUTO 25003KT 10SM SCT025 OVC100 27/24 A2999 RMK AO2
KTPF 231015Z AUTO 26003KT 10SM SCT023 BKN095 OVC110 27/25 A2999 RMK AO2
KTPF 230955Z AUTO 00000KT 10SM SCT024 SCT032 OVC100 27/25 A2998 RMK AO2
KTPF 230935Z AUTO 00000KT 10SM SCT028 OVC100 27/25 A2998 RMK AO2
KTPF 230915Z AUTO 00000KT 10SM SCT022 BKN027 OVC100 27/25 A2997 RMK AO2
KTPF 230855Z AUTO 00000KT 10SM BKN022 BKN027 OVC110 27/25 A2998 RMK AO2
KTPF 230835Z AUTO 00000KT 10SM SCT023 OVC110 27/25 A2998 RMK AO2
KTPF 230815Z AUTO 00000KT 10SM OVC110 27/25 A2998 RMK AO2
KTPF 230755Z AUTO 00000KT 10SM OVC100 27/25 A2998 RMK AO2
KTPF 230735Z AUTO 00000KT 10SM OVC110 27/25 A2997 RMK AO2
KTPF 230715Z AUTO 00000KT 10SM OVC110 27/24 A2997 RMK AO2
KTPF 230655Z AUTO 26003KT 10SM OVC110 27/25 A2998 RMK AO2
KTPF 230635Z AUTO 26003KT 10SM SCT020 OVC110 28/25 A2998 RMK AO2
KTPF 230615Z AUTO 28003KT 10SM OVC110 28/25 A2998 RMK AO2
KTPF 230555Z AUTO 26003KT 10SM SCT027 BKN100 OVC120 28/25 A2999 RMK AO2
KTPF 230535Z AUTO 27005KT 10SM SCT023 OVC100 28/25 A2999 RMK AO2
KTPF 230515Z AUTO 29004KT 10SM SCT021 OVC110 28/25 A3000 RMK AO2
KTPF 230455Z AUTO 28003KT 10SM SCT021 SCT029 OVC110 28/25 A3000 RMK AO2
KTPF 230435Z AUTO 28003KT 10SM BKN120 28/25 A3000 RMK AO2
KTPF 230415Z AUTO 28003KT 10SM BKN120 28/25 A2999 RMK AO2
KTPF 230355Z AUTO 28004KT 10SM BKN110 28/25 A3000 RMK AO2
KTPF 230335Z AUTO 26003KT 10SM BKN110 28/25 A3000 RMK AO2
KTPF 230315Z AUTO 00000KT 10SM BKN110 28/25 A3000 RMK AO2
KTPF 230255Z AUTO 25003KT 10SM BKN110 28/25 A3000 RMK AO2
KTPF 230235Z AUTO 00000KT 10SM BKN110 28/24 A2999 RMK AO2
KTPF 230215Z AUTO 27003KT 10SM BKN110 28/24 A2999 RMK AO2
KTPF 230155Z AUTO 28004KT 10SM SCT042 SCT050 BKN110 28/24 A2998 RMK AO2
KTPF 230135Z AUTO 28004KT 10SM SCT026 SCT042 BKN055 28/24 A2998 RMK AO2
KTPF 230115Z AUTO 28004KT 10SM BKN110 28/24 A2997 RMK AO2
KTPF 230055Z AUTO 29004KT 10SM BKN110 29/23 A2996 RMK AO2
KTPF 230035Z AUTO 29003KT 10SM SCT028 BKN110 29/23 A2996 RMK AO2
KTPF 230015Z AUTO 32004KT 10SM BKN110 30/23 A2996 RMK AO2
KTPF 222355Z AUTO 31006KT 10SM BKN110 30/23 A2996 RMK AO2
KTPF 222335Z AUTO 29006KT 10SM BKN100 BKN120 30/23 A2995 RMK AO2
KTPF 222315Z AUTO 31005KT 10SM BKN110 31/23 A2995 RMK AO2
KTPF 222255Z AUTO 29007KT 10SM BKN100 31/23 A2995 RMK AO2
KTPF 222235Z AUTO 29006KT 10SM OVC100 31/23 A2994 RMK AO2
KTPF 222215Z AUTO 28009G15KT 10SM BKN110 31/22 A2994 RMK AO2
KTPF 222155Z AUTO 29009KT 10SM BKN110 31/22 A2995 RMK AO2
KTPF 222135Z AUTO 31006KT 10SM BKN100 32/23 A2995 RMK AO2
KTPF 222115Z AUTO 29007KT 10SM BKN100 32/23 A2995 RMK AO2
KTPF 222055Z AUTO 30008G16KT 10SM OVC100 32/23 A2995 RMK AO2
KTPF 222035Z AUTO 29007G14KT 10SM OVC100 32/23 A2995 RMK AO2
KTPF 222015Z AUTO 30008G14KT 255V315 10SM OVC100 32/24 A2996 RMK AO2
KTPF 221955Z AUTO 29010G15KT 10SM SCT035 OVC100 32/23 A2996 RMK AO2
KTPF 221935Z AUTO 31008KT 10SM BKN100 OVC120 32/23 A2996 RMK AO2
KTPF 221915Z AUTO 30007KT 10SM OVC100 32/24 A2996 RMK AO2
KTPF 221855Z AUTO 30007KT 10SM OVC100 32/23 A2997 RMK AO2
KTPF 221835Z AUTO 29009KT 10SM BKN100 BKN120 32/23 A2998 RMK AO2
KTPF 221815Z AUTO 29005KT 10SM SCT090 SCT110 32/22 A2998 RMK AO2
KTPF 221755Z AUTO 28006KT 10SM SCT070 BKN090 OVC120 32/22 A2999 RMK AO2
KTPF 221735Z AUTO 27006KT 10SM SCT070 OVC090 32/23 A2999 RMK AO2
KTPF 221715Z AUTO 27005KT 10SM OVC100 32/23 A3000 RMK AO2
KTPF 221655Z AUTO 27007KT 10SM BKN100 OVC110 32/24 A3000 RMK AO2
KTPF 221635Z AUTO 28005KT 10SM SCT070 OVC100 31/24 A3001 RMK AO2
KTPF 221615Z AUTO 29006KT 10SM OVC100 31/23 A3001 RMK AO2
KTPF 221555Z AUTO 27005KT 10SM OVC100 31/23 A3001 RMK AO2
KTPF 221535Z AUTO 33004KT 10SM BKN100 OVC120 31/24 A3000 RMK AO2
KTPF 221515Z AUTO 30004KT 10SM OVC100 28/23 A3001 RMK AO2
KTPF 221455Z AUTO 00000KT 10SM BKN100 BKN120 28/25 A3001 RMK AO2
KTPF 221435Z AUTO 29004KT 10SM SCT035 SCT100 28/25 A3001 RMK AO2
KTPF 221415Z AUTO 30004KT 10SM SCT033 SCT055 BKN100 28/25 A3001 RMK AO2
KTPF 221355Z AUTO 33006KT 10SM SCT022 BKN030 OVC110 27/23 A3001 RMK AO2
KTPF 221335Z AUTO 27006KT 245V305 10SM SCT022 OVC110 30/25 A3000 RMK AO2
KTPF 221315Z AUTO 28003KT 10SM OVC100 28/25 A3001 RMK AO2
KTPF 221255Z AUTO 30003KT 10SM BKN100 OVC110 28/25 A3000 RMK AO2
KTPF 221235Z AUTO 26004KT 10SM SCT023 OVC100 28/25 A3000 RMK AO2
KTPF 221215Z AUTO 27004KT 10SM SCT023 OVC100 28/25 A3000 RMK AO2
KTPF 221155Z AUTO 28004KT 10SM OVC100 28/25 A2999 RMK AO2
KTPF 221135Z AUTO 00000KT 10SM OVC100 27/25 A2998 RMK AO2
KTPF 221115Z AUTO 27003KT 10SM OVC100 27/25 A2998 RMK AO2
KTPF 221055Z AUTO 00000KT 10SM BKN110 27/24 A2997 RMK AO2
KTPF 221035Z AUTO 27004KT 10SM OVC110 27/24 A2996 RMK AO2
KTPF 221015Z AUTO 26003KT 10SM OVC110 27/24 A2995 RMK AO2
KTPF 220955Z AUTO 00000KT 10SM SCT080 BKN090 OVC120 27/24 A2995 RMK AO2
KTPF 220935Z AUTO 27003KT 10SM BKN090 OVC120 27/24 A2994 RMK AO2
KTPF 220855Z AUTO 25003KT 10SM BKN090 OVC110 27/25 A2993 RMK AO2
KTPF 220835Z AUTO 26004KT 10SM BKN100 OVC120 27/25 A2993 RMK AO2
KTPF 220815Z AUTO 26004KT 10SM SCT022 SCT080 OVC110 27/25 A2993 RMK AO2
KTPF 220755Z AUTO 00000KT 10SM SCT022 BKN100 OVC120 27/25 A2993 RMK AO2
KTPF 220735Z AUTO 24003KT 10SM SCT025 OVC110 27/25 A2993 RMK AO2
KTPF 220715Z AUTO 25003KT 10SM SCT022 SCT037 OVC100 27/25 A2993 RMK AO2
KTPF 220655Z AUTO 24003KT 10SM BKN100 BKN120 27/25 A2993 RMK AO2
KTPF 220635Z AUTO 24003KT 10SM OVC100 27/25 A2993 RMK AO2
KTPF 220615Z AUTO 23003KT 10SM OVC100 27/24 A2994 RMK AO2
KTPF 220555Z AUTO 00000KT 10SM OVC110 27/24 A2995 RMK AO2
KTPF 220535Z AUTO 25003KT 10SM OVC110 27/24 A2996 RMK AO2
KTPF 220515Z AUTO 26004KT 10SM OVC110 27/24 A2996 RMK AO2
KTPF 220455Z AUTO 00000KT 10SM OVC100 27/24 A2996 RMK AO2
KTPF 220435Z AUTO 26003KT 10SM OVC100 28/25 A2997 RMK AO2
KTPF 220415Z AUTO 28005KT 10SM OVC100 28/25 A2997 RMK AO2
KTPF 220355Z AUTO 27006KT 10SM OVC110 28/25 A2998 RMK AO2
KTPF 220335Z AUTO 27004KT 10SM OVC110 28/25 A2998 RMK AO2
KTPF 220315Z AUTO 28005KT 10SM OVC110 28/25 A2997 RMK AO2
KTPF 220255Z AUTO 27004KT 10SM OVC110 28/24 A2998 RMK AO2
KTPF 220235Z AUTO 00000KT 10SM OVC110 28/24 A2998 RMK AO2
KTPF 220215Z AUTO 28004KT 10SM OVC110 28/25 A2998 RMK AO2
KTPF 220155Z AUTO 30004KT 10SM OVC110 28/24 A2997 RMK AO2